createdAt,value
2018-06-15T00:02:40.598Z,72.50
2018-06-15T00:05:38.528Z,72.60
2018-06-15T00:08:36.161Z,72.50
2018-06-15T00:11:34.001Z,71.60
2018-06-15T00:14:31.825Z,70.60
2018-06-15T00:17:29.761Z,71.60
2018-06-15T00:20:27.323Z,72.50
2018-06-15T00:23:25.404Z,71.10
2018-06-15T00:26:23.274Z,71.80
2018-06-15T00:29:20.919Z,71.60
2018-06-15T00:32:18.519Z,71.50
2018-06-15T00:35:16.507Z,71.50
2018-06-15T00:38:18.518Z,71.10
2018-06-15T00:41:16.384Z,72.10
2018-06-15T00:44:14.162Z,70.90
2018-06-15T00:47:11.950Z,70.80
2018-06-15T00:50:09.447Z,70.80
2018-06-15T00:53:07.349Z,71.60
2018-06-15T00:56:05.235Z,72.00
2018-06-15T00:59:03.107Z,71.20
2018-06-15T01:02:01.078Z,71.10
2018-06-15T01:04:58.702Z,71.80
2018-06-15T01:07:56.528Z,71.80
2018-06-15T01:10:54.068Z,71.80
2018-06-15T01:13:51.763Z,71.90
2018-06-15T01:16:50.637Z,72.00
2018-06-15T01:19:48.421Z,72.00
2018-06-15T01:22:46.502Z,72.00
2018-06-15T01:25:44.473Z,72.20
2018-06-15T01:28:42.358Z,72.00
2018-06-15T01:31:40.202Z,71.90
2018-06-15T01:34:38.290Z,71.80
2018-06-15T01:37:36.054Z,71.20
2018-06-15T01:46:49.346Z,70.80
2018-06-15T01:49:47.106Z,70.30
2018-06-15T01:52:44.964Z,70.30
2018-06-15T01:55:46.608Z,70.60
2018-06-15T01:58:44.707Z,71.60
2018-06-15T02:01:42.308Z,71.50
2018-06-15T02:04:40.360Z,70.90
2018-06-15T02:07:38.329Z,72.30
2018-06-15T02:10:36.213Z,71.50
2018-06-15T02:13:34.070Z,70.50
2018-06-15T02:16:31.760Z,72.00
2018-06-15T02:19:29.682Z,72.10
2018-06-15T02:22:27.594Z,72.00
2018-06-15T02:25:25.385Z,70.80
2018-06-15T02:28:23.324Z,71.10
2018-06-15T02:31:21.037Z,70.90
2018-06-15T02:34:18.641Z,70.30
2018-06-15T02:37:16.357Z,69.90
2018-06-15T02:40:14.258Z,68.10
2018-06-15T02:43:12.032Z,69.00
2018-06-15T02:46:09.854Z,69.20
2018-06-15T02:49:07.762Z,69.40
2018-06-15T02:52:05.402Z,69.30
2018-06-15T02:55:03.111Z,70.00
2018-06-15T02:58:00.924Z,70.20
2018-06-15T03:00:58.549Z,70.00
2018-06-15T03:03:56.322Z,69.90
2018-06-15T03:06:53.975Z,70.50
2018-06-15T03:09:51.657Z,70.40
2018-06-15T03:12:49.452Z,70.20
2018-06-15T03:15:47.270Z,70.40
2018-06-15T03:18:44.994Z,70.10
2018-06-15T03:21:42.874Z,69.70
2018-06-15T03:24:40.612Z,70.10
2018-06-15T03:27:38.386Z,69.60
2018-06-15T03:30:36.029Z,69.50
2018-06-15T03:33:33.771Z,69.10
2018-06-15T03:36:31.548Z,69.90
2018-06-15T03:39:30.313Z,69.80
2018-06-15T03:45:17.802Z,69.70
2018-06-15T03:48:15.471Z,69.80
2018-06-15T03:51:13.331Z,70.80
2018-06-15T03:54:10.969Z,70.30
2018-06-15T03:57:08.727Z,70.50
2018-06-15T04:00:06.226Z,70.30
2018-06-15T04:03:04.150Z,70.30
2018-06-15T04:06:03.035Z,70.60
2018-06-15T04:09:01.028Z,70.70
2018-06-15T04:11:58.851Z,70.50
2018-06-15T04:14:56.568Z,70.60
2018-06-15T04:17:59.444Z,70.80
2018-06-15T04:20:59.024Z,70.60
2018-06-15T04:23:56.833Z,70.80
2018-06-15T04:26:54.414Z,70.60
2018-06-15T04:29:54.456Z,70.10
2018-06-15T04:32:52.436Z,69.70
2018-06-15T04:35:50.187Z,70.40
2018-06-15T04:38:48.051Z,71.00
2018-06-15T04:41:45.942Z,71.20
2018-06-15T04:44:43.881Z,71.20
2018-06-15T04:47:41.705Z,70.80
2018-06-15T04:50:39.730Z,71.10
2018-06-15T04:53:37.619Z,71.30
2018-06-15T04:56:35.338Z,70.80
2018-06-15T04:59:33.116Z,69.90
2018-06-15T05:02:31.110Z,70.80
2018-06-15T05:05:28.917Z,70.70
2018-06-15T05:08:26.787Z,70.60
2018-06-15T05:11:24.555Z,70.10
2018-06-15T05:14:22.422Z,70.20
2018-06-15T05:17:20.298Z,70.30
2018-06-15T05:20:17.855Z,70.00
2018-06-15T05:23:15.668Z,69.20
2018-06-15T05:26:13.450Z,69.70
2018-06-15T05:29:11.202Z,69.30
2018-06-15T05:32:08.906Z,69.10
2018-06-15T05:35:06.561Z,69.90
2018-06-15T05:38:04.619Z,69.00
2018-06-15T05:41:02.249Z,68.30
2018-06-15T05:43:59.946Z,67.60
2018-06-15T05:46:57.515Z,67.20
2018-06-15T05:49:55.341Z,67.10
2018-06-15T05:52:52.978Z,66.00
2018-06-15T05:55:50.580Z,65.30
2018-06-15T05:58:48.274Z,65.00
2018-06-15T06:01:48.998Z,63.70
2018-06-15T06:04:46.901Z,62.80
2018-06-15T06:07:44.559Z,62.30
2018-06-15T06:10:42.506Z,60.50
2018-06-15T06:13:40.277Z,59.00
2018-06-15T06:16:38.014Z,58.50
2018-06-15T06:19:35.946Z,58.90
2018-06-15T06:22:33.817Z,58.20
2018-06-15T06:25:31.613Z,56.90
2018-06-15T06:28:29.347Z,56.30
2018-06-15T06:31:27.069Z,55.90
2018-06-15T06:34:24.911Z,55.10
2018-06-15T06:37:22.429Z,54.00
2018-06-15T06:40:20.256Z,52.60
2018-06-15T06:43:18.190Z,52.20
2018-06-15T06:46:15.974Z,52.60
2018-06-15T06:49:13.737Z,51.50
2018-06-15T06:52:11.657Z,52.80
2018-06-15T06:55:09.555Z,52.30
2018-06-15T06:58:07.374Z,51.80
2018-06-15T07:01:05.150Z,52.10
2018-06-15T07:04:02.779Z,51.70
2018-06-15T07:09:50.189Z,50.90
2018-06-15T07:12:47.782Z,52.00
2018-06-15T07:15:45.699Z,52.40
2018-06-15T07:18:43.501Z,51.10
2018-06-15T07:21:41.246Z,50.90
2018-06-15T07:24:39.013Z,53.90
2018-06-15T07:27:36.819Z,50.70
2018-06-15T07:30:34.765Z,51.80
2018-06-15T07:33:32.700Z,49.30
2018-06-15T07:36:30.516Z,48.10
2018-06-15T07:39:28.940Z,49.40
2018-06-15T07:42:26.829Z,46.50
2018-06-15T07:45:24.668Z,48.20
2018-06-15T07:51:12.245Z,46.20
2018-06-15T07:54:09.938Z,48.70
2018-06-15T07:57:07.743Z,43.90
2018-06-15T08:02:55.336Z,46.70
2018-06-15T08:05:53.028Z,45.30
2018-06-15T08:08:50.561Z,46.80
2018-06-15T08:11:48.605Z,45.70
2018-06-15T08:14:46.257Z,43.80
2018-06-15T08:17:44.087Z,45.30
2018-06-15T08:20:41.648Z,46.30
2018-06-15T08:23:40.519Z,45.20
2018-06-15T08:26:38.262Z,43.70
2018-06-15T08:29:36.216Z,43.00
2018-06-15T08:32:33.957Z,41.70
2018-06-15T08:35:31.758Z,42.40
2018-06-15T08:38:29.527Z,43.40
2018-06-15T08:41:27.303Z,41.70
2018-06-15T08:44:24.914Z,44.40
2018-06-15T08:47:22.638Z,44.90
2018-06-15T08:50:20.142Z,43.50
2018-06-15T08:53:17.810Z,43.30
2018-06-15T08:56:15.255Z,43.10
2018-06-15T08:59:12.986Z,44.80
2018-06-15T09:02:10.712Z,44.20
2018-06-15T09:05:08.270Z,42.90
2018-06-15T09:08:05.837Z,42.90
2018-06-15T09:11:03.773Z,44.30
2018-06-15T09:14:01.445Z,44.50
2018-06-15T09:19:49.750Z,45.40
2018-06-15T09:22:47.419Z,44.80
2018-06-15T09:25:45.185Z,43.90
2018-06-15T09:28:43.055Z,43.80
2018-06-15T09:31:40.877Z,43.00
2018-06-15T09:34:38.534Z,43.30
2018-06-15T09:37:36.143Z,42.60
2018-06-15T09:40:35.119Z,42.40
2018-06-15T09:43:32.661Z,41.00
2018-06-15T09:46:30.210Z,41.20
2018-06-15T09:49:27.973Z,43.20
2018-06-15T09:53:28.572Z,43.00
2018-06-15T09:56:26.175Z,42.70
2018-06-15T09:59:24.929Z,43.40
2018-06-15T10:02:22.763Z,43.40
2018-06-15T10:05:20.597Z,43.80
2018-06-15T10:08:18.346Z,41.90
2018-06-15T10:11:16.238Z,42.60
2018-06-15T10:14:13.970Z,42.80
2018-06-15T10:17:11.809Z,43.30
2018-06-15T10:20:13.381Z,42.10
2018-06-15T10:23:14.228Z,41.90
2018-06-15T10:26:15.065Z,41.50
2018-06-15T10:29:12.741Z,41.60
2018-06-15T10:32:11.353Z,40.30
2018-06-15T10:35:09.356Z,42.00
2018-06-15T10:38:07.074Z,42.30
2018-06-15T10:41:20.687Z,40.80
2018-06-15T10:44:21.088Z,42.50
2018-06-15T10:47:35.838Z,44.20
2018-06-15T10:51:29.332Z,43.30
2018-06-15T10:58:06.519Z,41.40
2018-06-15T11:01:07.334Z,42.10
2018-06-15T11:04:06.078Z,42.60
2018-06-15T11:10:11.983Z,41.20
2018-06-15T11:13:09.940Z,41.50
2018-06-15T11:16:07.962Z,42.10
2018-06-15T11:19:07.177Z,42.10
2018-06-15T11:22:04.881Z,43.20
2018-06-15T11:25:20.943Z,45.00
2018-06-15T11:28:18.849Z,40.80
2018-06-15T11:31:16.860Z,40.30
2018-06-15T11:34:14.741Z,41.50
2018-06-15T11:37:12.630Z,42.60
2018-06-15T11:40:10.240Z,41.40
2018-06-15T11:43:08.112Z,40.60
2018-06-15T11:46:06.039Z,41.60
2018-06-15T12:00:13.538Z,40.80
2018-06-15T12:02:40.946Z,39.70
2018-06-15T12:05:08.232Z,42.50
2018-06-15T12:07:35.521Z,40.20
2018-06-15T12:10:02.963Z,40.00
2018-06-15T12:12:30.337Z,38.50
2018-06-15T12:17:25.322Z,40.30
2018-06-15T12:19:52.731Z,40.60
2018-06-15T12:22:20.372Z,39.80
2018-06-15T12:27:15.635Z,38.50
2018-06-15T12:29:43.177Z,39.30
2018-06-15T12:32:10.677Z,39.70
2018-06-15T12:34:40.749Z,38.90
2018-06-15T12:37:08.991Z,36.30
2018-06-15T12:39:36.368Z,36.70
2018-06-15T12:42:03.919Z,36.70
2018-06-15T12:44:35.709Z,37.20
2018-06-15T12:47:03.399Z,36.80
2018-06-15T12:49:30.759Z,36.60
2018-06-15T12:51:58.173Z,37.70
2018-06-15T12:54:25.766Z,38.90
2018-06-15T12:56:53.125Z,39.00
2018-06-15T12:59:20.418Z,37.70
2018-06-15T13:01:47.691Z,37.40
2018-06-15T13:04:14.937Z,35.60
2018-06-15T13:06:42.441Z,35.50
2018-06-15T13:09:10.550Z,36.90
2018-06-15T13:11:37.882Z,34.00
2018-06-15T13:14:05.352Z,34.20
2018-06-15T13:16:33.295Z,34.70
2018-06-15T13:19:00.674Z,34.80
2018-06-15T13:21:28.049Z,32.70
2018-06-15T13:23:55.455Z,31.90
2018-06-15T13:26:23.024Z,31.30
2018-06-15T13:28:50.428Z,31.20
2018-06-15T13:31:17.933Z,31.60
2018-06-15T13:33:45.630Z,32.70
2018-06-15T13:36:12.970Z,32.90
2018-06-15T13:38:40.390Z,32.50
2018-06-15T13:41:07.691Z,30.80
2018-06-15T13:43:35.027Z,30.50
2018-06-15T13:46:02.476Z,31.80
2018-06-15T13:48:29.818Z,30.60
2018-06-15T13:50:57.104Z,31.50
2018-06-15T13:53:24.427Z,31.40
2018-06-15T13:55:51.811Z,31.10
2018-06-15T13:58:19.141Z,31.90
2018-06-15T14:00:46.431Z,31.00
2018-06-15T14:03:13.733Z,30.30
2018-06-15T14:05:41.860Z,31.20
2018-06-15T14:08:10.553Z,31.30
2018-06-15T14:10:38.029Z,30.60
2018-06-15T14:13:05.644Z,31.10
2018-06-15T14:15:33.003Z,30.80
2018-06-15T14:18:00.959Z,30.60
2018-06-15T14:22:56.446Z,28.60
2018-06-15T14:25:31.920Z,29.30
2018-06-15T14:27:59.363Z,29.80
2018-06-15T14:30:26.919Z,28.80
2018-06-15T14:32:55.215Z,29.00
2018-06-15T14:35:22.493Z,28.80
2018-06-15T14:37:50.614Z,29.30
2018-06-15T14:40:18.402Z,29.90
2018-06-15T14:42:45.784Z,30.20
2018-06-15T14:45:13.561Z,31.10
2018-06-15T14:47:41.094Z,31.20
2018-06-15T14:50:08.521Z,30.40
2018-06-15T14:52:36.014Z,29.50
2018-06-15T14:55:03.476Z,29.80
2018-06-15T14:57:30.939Z,30.10
2018-06-15T14:59:58.475Z,30.10
2018-06-15T15:02:25.907Z,30.00
2018-06-15T15:04:53.348Z,31.20
2018-06-15T15:07:20.788Z,30.60
2018-06-15T15:09:48.316Z,29.90
2018-06-15T15:12:46.270Z,29.90
2018-06-15T15:15:13.998Z,30.30
2018-06-15T15:17:41.750Z,30.90
2018-06-15T15:20:09.475Z,30.90
2018-06-15T15:22:37.353Z,30.30
2018-06-15T15:25:07.108Z,30.70
2018-06-15T15:27:34.754Z,30.80
2018-06-15T15:30:02.272Z,32.30
2018-06-15T15:32:29.921Z,32.50
2018-06-15T15:34:57.287Z,32.00
2018-06-15T15:37:28.453Z,32.60
2018-06-15T15:40:12.278Z,33.80
2018-06-15T15:42:39.950Z,35.80
2018-06-15T15:45:07.752Z,35.40
2018-06-15T15:47:35.350Z,35.20
2018-06-15T15:50:02.774Z,35.60
2018-06-15T15:52:30.384Z,35.90
2018-06-15T15:54:57.824Z,35.10
2018-06-15T15:57:25.253Z,35.70
2018-06-15T15:59:52.731Z,36.20
2018-06-15T16:02:20.031Z,36.20
2018-06-15T16:04:47.534Z,36.60
2018-06-15T16:07:15.045Z,36.90
2018-06-15T16:09:42.538Z,37.30
2018-06-15T16:12:10.094Z,37.90
2018-06-15T16:14:38.010Z,39.20
2018-06-15T16:17:06.274Z,39.40
2018-06-15T16:19:33.826Z,40.50
2018-06-15T16:22:01.251Z,39.50
2018-06-15T16:24:32.391Z,38.20
2018-06-15T16:27:15.849Z,39.10
2018-06-15T16:29:43.548Z,38.30
2018-06-15T16:32:11.038Z,38.00
2018-06-15T16:34:38.704Z,38.00
2018-06-15T16:37:07.915Z,36.20
2018-06-15T16:39:35.544Z,35.40
2018-06-15T16:42:03.008Z,36.10
2018-06-15T16:44:30.986Z,36.20
2018-06-15T16:46:58.389Z,36.90
2018-06-15T16:49:25.859Z,37.60
2018-06-15T16:51:53.273Z,38.20
2018-06-15T16:54:20.752Z,38.70
2018-06-15T16:56:48.218Z,37.80
2018-06-15T16:59:15.811Z,37.90
2018-06-15T17:01:44.806Z,38.60
2018-06-15T17:04:12.264Z,38.80
2018-06-15T17:06:39.955Z,38.00
2018-06-15T17:09:08.986Z,37.40
2018-06-15T17:11:36.668Z,37.30
2018-06-15T17:18:59.818Z,39.30
2018-06-15T17:21:27.340Z,39.60
2018-06-15T17:23:54.852Z,39.30
2018-06-15T17:26:22.308Z,38.70
2018-06-15T17:28:49.824Z,36.80
2018-06-15T17:31:17.561Z,36.60
2018-06-15T17:33:45.989Z,36.10
2018-06-15T17:36:13.356Z,37.00
2018-06-15T17:38:41.058Z,36.70
2018-06-15T17:41:08.850Z,36.60
2018-06-15T17:43:36.406Z,37.00
2018-06-15T17:46:04.788Z,36.80
2018-06-15T17:48:32.386Z,37.60
2018-06-15T17:50:59.813Z,37.90
2018-06-15T17:53:27.104Z,37.60
2018-06-15T17:55:56.479Z,36.50
2018-06-15T17:58:43.860Z,36.60
2018-06-15T18:01:14.902Z,35.60
2018-06-15T18:03:43.814Z,36.10
2018-06-15T18:06:11.455Z,37.30
2018-06-15T18:08:38.774Z,38.60
2018-06-15T18:11:06.376Z,38.20
2018-06-15T18:13:33.747Z,38.70
2018-06-15T18:16:01.217Z,39.10
2018-06-15T18:18:28.862Z,39.50
2018-06-15T18:20:56.368Z,40.50
2018-06-15T18:23:24.218Z,41.20
2018-06-15T18:25:51.514Z,41.50
2018-06-15T18:28:19.391Z,42.20
2018-06-15T18:30:47.418Z,43.10
2018-06-15T18:33:15.036Z,44.40
2018-06-15T18:35:42.901Z,44.60
2018-06-15T18:38:10.688Z,44.60
2018-06-15T18:40:38.583Z,45.40
2018-06-15T18:43:07.301Z,46.30
2018-06-15T18:45:39.438Z,45.80
2018-06-15T18:48:06.995Z,45.80
2018-06-15T18:50:35.426Z,45.80
2018-06-15T18:53:03.071Z,45.60
2018-06-15T18:55:30.851Z,46.10
2018-06-15T18:57:59.297Z,46.10
2018-06-15T19:00:28.442Z,46.00
2018-06-15T19:02:56.343Z,47.50
2018-06-15T19:05:24.949Z,47.10
2018-06-15T19:07:53.715Z,47.10
2018-06-15T19:12:49.972Z,47.50
2018-06-15T19:15:24.035Z,48.00
2018-06-15T19:17:51.921Z,47.70
2018-06-15T19:20:20.881Z,48.10
2018-06-15T19:22:50.885Z,48.40
2018-06-15T19:25:18.864Z,48.60
2018-06-15T19:27:46.328Z,48.40
2018-06-15T19:30:13.686Z,48.90
2018-06-15T19:32:41.822Z,49.30
2018-06-15T19:35:09.369Z,49.30
2018-06-15T19:37:38.869Z,49.60
2018-06-15T19:40:06.369Z,49.50
2018-06-15T19:42:34.115Z,49.60
2018-06-15T19:45:01.876Z,49.70
2018-06-15T19:47:30.471Z,50.00
2018-06-15T19:49:58.450Z,50.10
2018-06-15T19:52:26.832Z,50.60
2018-06-15T19:54:54.858Z,50.80
2018-06-15T19:57:22.363Z,51.10
2018-06-15T19:59:49.747Z,50.90
2018-06-15T20:02:17.167Z,51.50
2018-06-15T20:04:45.100Z,51.70
2018-06-15T20:07:12.731Z,51.80
2018-06-15T20:09:41.735Z,51.80
2018-06-15T20:12:09.265Z,52.20
2018-06-15T20:14:37.028Z,52.70
2018-06-15T20:17:04.406Z,52.90
2018-06-15T20:19:31.911Z,52.80
2018-06-15T20:21:59.423Z,53.50
2018-06-15T20:24:26.952Z,53.70
2018-06-15T20:26:54.491Z,53.80
2018-06-15T20:29:22.021Z,54.00
2018-06-15T20:31:49.614Z,54.50
2018-06-15T20:34:17.072Z,54.80
2018-06-15T20:36:44.596Z,54.80
2018-06-15T20:39:12.037Z,55.20
2018-06-15T20:41:39.349Z,55.70
2018-06-15T20:46:34.777Z,56.00
2018-06-15T20:49:03.023Z,56.30
2018-06-15T20:51:30.885Z,56.80
2018-06-15T20:53:58.440Z,56.90
2018-06-15T20:56:26.170Z,57.20
2018-06-15T20:58:53.776Z,58.20
2018-06-15T21:01:21.397Z,58.70
2018-06-15T21:03:51.294Z,59.10
2018-06-15T21:06:18.926Z,58.90
2018-06-15T21:08:46.291Z,59.00
2018-06-15T21:11:13.796Z,59.20
2018-06-15T21:13:41.201Z,59.50
2018-06-15T21:16:08.503Z,59.60
2018-06-15T21:18:35.882Z,59.70
2018-06-15T21:21:03.410Z,59.90
2018-06-15T21:23:30.886Z,60.40
2018-06-15T21:25:58.833Z,60.40
2018-06-15T21:28:26.279Z,60.40
2018-06-15T21:30:54.273Z,60.90
2018-06-15T21:33:21.581Z,60.90
2018-06-15T21:35:48.972Z,61.10
2018-06-15T21:38:16.416Z,61.50
2018-06-15T21:40:43.868Z,61.40
2018-06-15T21:43:11.375Z,61.40
2018-06-15T21:45:39.396Z,60.50
2018-06-15T21:48:06.806Z,60.50
2018-06-15T21:50:34.574Z,60.60
2018-06-15T21:53:03.752Z,61.10
2018-06-15T21:55:31.313Z,61.80
2018-06-15T21:57:59.747Z,62.10
2018-06-15T22:00:27.129Z,62.50
2018-06-15T22:02:54.946Z,62.70
2018-06-15T22:05:22.308Z,62.80
2018-06-15T22:07:49.770Z,63.00
2018-06-15T22:10:17.976Z,63.00
2018-06-15T22:12:45.916Z,62.70
2018-06-15T22:15:13.235Z,63.10
2018-06-15T22:17:40.805Z,63.20
2018-06-15T22:20:08.146Z,62.90
2018-06-15T22:22:35.882Z,63.20
2018-06-15T22:25:04.384Z,63.60
2018-06-15T22:27:34.290Z,63.50
2018-06-15T22:30:03.379Z,64.70
2018-06-15T22:32:30.754Z,64.20
2018-06-15T22:34:58.089Z,64.80
2018-06-15T22:37:25.877Z,65.00
2018-06-15T22:39:54.369Z,65.20
2018-06-15T22:42:21.791Z,65.20
2018-06-15T22:44:49.297Z,65.00
2018-06-15T22:47:16.658Z,66.40
2018-06-15T22:49:44.020Z,65.50
2018-06-15T22:52:11.612Z,66.00
2018-06-15T22:54:39.317Z,66.00
2018-06-15T22:57:06.679Z,66.80
2018-06-15T22:59:33.969Z,65.80
2018-06-15T23:02:01.269Z,65.70
2018-06-15T23:04:29.482Z,66.00
2018-06-15T23:06:56.795Z,66.20
2018-06-15T23:09:24.236Z,66.70
2018-06-15T23:11:51.544Z,67.20
2018-06-15T23:14:18.922Z,67.30
2018-06-15T23:16:46.190Z,67.30
2018-06-15T23:19:13.587Z,67.60
2018-06-15T23:21:40.892Z,68.50
2018-06-15T23:24:08.154Z,67.90
2018-06-15T23:26:35.437Z,68.10
2018-06-15T23:29:02.851Z,68.50
2018-06-15T23:31:30.206Z,68.10
2018-06-15T23:33:57.498Z,68.30
2018-06-15T23:36:24.778Z,68.30
2018-06-15T23:38:52.117Z,68.60
2018-06-15T23:41:19.495Z,68.80
2018-06-15T23:43:46.865Z,69.10
2018-06-15T23:46:14.285Z,69.10
2018-06-15T23:48:41.681Z,68.40
2018-06-15T23:51:08.970Z,68.80
2018-06-15T23:53:36.264Z,69.30
2018-06-15T23:56:03.601Z,69.60
2018-06-15T23:58:30.917Z,69.80
